Time;durP1;ratioP1;P1;durP2;ratioP2;P2;SDS_P1;SDS_P2;PMS_P1;PMS_P2;Temp;Humidity;BMP_temperature;BMP_pressure;BME280_temperature;BME280_humidity;BME280_pressure;Samples;Min_cycle;Max_cycle;Signal;HPM_P1;HPM_P2
2022/01/09 00:00:37;;;;;;;0.88;0.63;;;4.60;16.30;;;;;;5043690;28;20048;-66
2022/01/09 00:03:06;;;;;;;0.60;0.40;;;4.60;17.30;;;;;;5055721;28;20056;-65
2022/01/09 00:05:35;;;;;;;1.15;0.70;;;4.60;17.20;;;;;;5058288;28;20052;-65
2022/01/09 00:08:03;;;;;;;0.90;0.60;;;4.70;17.70;;;;;;5065326;28;20056;-65
2022/01/09 00:10:36;;;;;;;1.58;0.60;;;4.60;18.10;;;;;;5060269;28;20052;-66
2022/01/09 00:13:08;;;;;;;0.35;0.35;;;4.70;17.90;;;;;;5055979;28;20435;-66
2022/01/09 00:15:37;;;;;;;0.52;0.50;;;4.70;18.60;;;;;;5057090;28;20073;-65
2022/01/09 00:18:06;;;;;;;0.75;0.50;;;4.60;19.40;;;;;;5050151;28;20546;-65
2022/01/09 00:20:34;;;;;;;0.40;0.30;;;4.70;19.40;;;;;;5033498;28;20069;-65
2022/01/09 00:23:02;;;;;;;1.83;1.02;;;4.70;19.40;;;;;;5055368;28;20080;-66
2022/01/09 00:25:31;;;;;;;0.98;0.43;;;4.70;19.30;;;;;;5062302;28;20056;-65
2022/01/09 00:28:00;;;;;;;0.43;0.32;;;4.70;19.40;;;;;;5053890;28;20049;-65
2022/01/09 00:30:28;;;;;;;0.70;0.45;;;4.70;20.10;;;;;;5049202;28;20051;-65
2022/01/09 00:32:56;;;;;;;1.42;0.45;;;4.70;20.60;;;;;;5052981;28;20044;-65
2022/01/09 00:35:24;;;;;;;0.85;0.30;;;4.70;21.30;;;;;;5041231;28;20045;-65
2022/01/09 00:37:52;;;;;;;0.63;0.40;;;4.70;20.70;;;;;;5047461;28;20461;-66
2022/01/09 00:40:20;;;;;;;1.90;0.40;;;4.70;21.80;;;;;;5046100;28;20167;-65
2022/01/09 00:42:48;;;;;;;0.73;0.47;;;4.70;22.00;;;;;;5048373;28;20047;-65
2022/01/09 00:45:19;;;;;;;0.40;0.30;;;4.70;22.50;;;;;;5057568;28;20141;-65
2022/01/09 00:47:47;;;;;;;0.47;0.30;;;4.70;22.80;;;;;;5066007;28;20124;-64
2022/01/09 00:50:16;;;;;;;0.30;0.30;;;4.70;22.80;;;;;;5063588;28;20075;-66
2022/01/09 00:52:44;;;;;;;0.57;0.20;;;4.70;23.30;;;;;;5064286;28;20123;-64
2022/01/09 00:55:13;;;;;;;0.35;0.20;;;4.70;22.80;;;;;;5065308;28;20135;-66
2022/01/09 00:57:41;;;;;;;0.45;0.22;;;4.70;22.50;;;;;;5066484;28;20520;-64
2022/01/09 01:00:11;;;;;;;0.30;0.20;;;4.70;22.90;;;;;;5065853;28;20071;-66
2022/01/09 01:02:42;;;;;;;0.22;0.13;;;4.70;22.80;;;;;;5065678;28;20039;-65
2022/01/09 01:05:10;;;;;;;0.30;0.22;;;4.70;22.90;;;;;;5062041;28;20132;-64
2022/01/09 01:07:38;;;;;;;1.27;0.38;;;4.60;22.80;;;;;;5048185;28;20515;-66
2022/01/09 01:10:12;;;;;;;0.10;0.10;;;4.60;22.80;;;;;;5048068;28;20041;-66
2022/01/09 01:12:40;;;;;;;0.30;0.15;;;4.60;22.70;;;;;;5057573;28;20505;-65
2022/01/09 01:15:11;;;;;;;0.20;0.17;;;4.60;22.80;;;;;;5051396;28;20056;-64
2022/01/09 01:17:41;;;;;;;0.40;0.15;;;4.60;22.40;;;;;;5039527;28;20045;-66
2022/01/09 01:20:10;;;;;;;0.30;0.20;;;4.60;22.70;;;;;;5037919;28;20142;-65
2022/01/09 01:22:38;;;;;;;0.43;0.20;;;4.60;22.80;;;;;;5058866;28;20106;-66
2022/01/09 01:25:07;;;;;;;0.28;0.20;;;4.70;21.90;;;;;;5057314;28;20155;-65
2022/01/09 01:27:35;;;;;;;0.75;0.30;;;4.70;21.90;;;;;;5059447;28;20040;-65
2022/01/09 01:30:04;;;;;;;0.20;0.20;;;4.70;22.00;;;;;;5061820;28;20052;-66
2022/01/09 01:32:32;;;;;;;0.20;0.20;;;4.60;21.90;;;;;;5065148;28;20275;-66
2022/01/09 01:35:02;;;;;;;0.28;0.20;;;4.70;22.20;;;;;;5044726;28;20053;-67
2022/01/09 01:37:30;;;;;;;0.13;0.13;;;4.70;21.80;;;;;;5018052;28;20275;-66
2022/01/09 01:39:58;;;;;;;0.17;0.17;;;4.70;21.40;;;;;;5044156;28;20139;-65
2022/01/09 01:42:26;;;;;;;0.22;0.13;;;4.70;21.70;;;;;;5046474;28;20048;-66
2022/01/09 01:44:54;;;;;;;0.30;0.20;;;4.70;21.40;;;;;;5043707;28;20049;-66
2022/01/09 01:47:23;;;;;;;0.20;0.10;;;4.80;21.60;;;;;;5046042;28;20099;-66
2022/01/09 01:49:52;;;;;;;0.28;0.15;;;4.80;21.70;;;;;;5048312;28;20076;-66
2022/01/09 01:52:27;;;;;;;0.60;0.20;;;4.70;21.80;;;;;;5046508;28;20128;-66
2022/01/09 01:54:55;;;;;;;0.20;0.10;;;4.80;21.70;;;;;;5040991;28;20053;-67
2022/01/09 01:57:23;;;;;;;0.10;0.10;;;4.80;21.50;;;;;;5059494;28;20059;-66
2022/01/09 01:59:51;;;;;;;0.13;0.13;;;4.90;20.60;;;;;;5063574;28;20158;-66
2022/01/09 02:02:19;;;;;;;0.22;0.22;;;4.90;19.70;;;;;;5065278;28;20063;-66
2022/01/09 02:04:47;;;;;;;0.63;0.20;;;4.90;20.30;;;;;;5065837;28;20045;-66
2022/01/09 02:07:15;;;;;;;0.73;0.20;;;4.90;20.30;;;;;;5065204;28;20131;-66
2022/01/09 02:09:45;;;;;;;0.30;0.20;;;5.00;19.60;;;;;;5063687;28;20587;-66
2022/01/09 02:12:13;;;;;;;0.10;0.10;;;5.00;19.60;;;;;;5066788;28;20143;-65
2022/01/09 02:14:44;;;;;;;0.10;0.10;;;5.00;19.90;;;;;;5064852;28;20052;-66
2022/01/09 02:17:16;;;;;;;0.10;0.10;;;4.90;20.30;;;;;;5066423;28;20047;-66
2022/01/09 02:19:56;;;;;;;0.20;0.10;;;5.00;19.60;;;;;;5065113;28;20102;-66
2022/01/09 02:22:29;;;;;;;0.20;0.10;;;5.10;19.20;;;;;;5047121;28;20080;-65
2022/01/09 02:24:59;;;;;;;0.10;0.10;;;5.10;19.90;;;;;;5044621;28;20040;-65
2022/01/09 02:27:28;;;;;;;0.10;0.10;;;5.10;19.40;;;;;;5058400;28;20487;-66
2022/01/09 02:29:56;;;;;;;0.10;0.10;;;5.10;19.30;;;;;;5054305;28;20056;-65
2022/01/09 02:32:24;;;;;;;0.10;0.10;;;5.10;19.30;;;;;;5045103;28;20798;-65
2022/01/09 02:34:52;;;;;;;0.10;0.03;;;5.10;19.60;;;;;;5044375;28;20496;-66
2022/01/09 02:37:22;;;;;;;0.20;0.10;;;5.10;19.70;;;;;;5065047;28;20098;-66
2022/01/09 02:39:50;;;;;;;0.20;0.10;;;5.10;19.70;;;;;;5062178;28;20072;-67
2022/01/09 02:42:20;;;;;;;0.35;0.10;;;5.00;19.80;;;;;;5063668;28;20051;-64
2022/01/09 02:44:48;;;;;;;0.30;0.20;;;5.00;20.70;;;;;;5064227;28;20579;-65
2022/01/09 02:47:16;;;;;;;0.50;0.30;;;5.00;20.90;;;;;;5066976;28;20603;-66
2022/01/09 02:49:48;;;;;;;0.55;0.22;;;4.90;21.40;;;;;;5063959;28;20563;-66
2022/01/09 02:52:28;;;;;;;1.25;0.20;;;5.00;21.30;;;;;;5062950;28;20123;-66
2022/01/09 02:55:14;;;;;;;1.13;0.30;;;4.90;21.30;;;;;;5062650;28;20041;-65
2022/01/09 02:57:43;;;;;;;0.40;0.20;;;5.00;21.00;;;;;;5064384;28;20117;-65
2022/01/09 03:00:14;;;;;;;0.50;0.25;;;4.90;21.10;;;;;;5062544;28;20072;-66
2022/01/09 03:02:42;;;;;;;0.60;0.30;;;5.00;20.70;;;;;;5064672;28;20495;-66
2022/01/09 03:05:11;;;;;;;0.20;0.20;;;4.90;21.10;;;;;;5065085;28;20095;-66
2022/01/09 03:07:41;;;;;;;0.20;0.20;;;4.90;21.50;;;;;;5065107;28;20037;-66
2022/01/09 03:10:11;;;;;;;0.20;0.20;;;5.00;21.10;;;;;;5062131;28;20068;-66
2022/01/09 03:12:40;;;;;;;0.30;0.20;;;5.00;20.90;;;;;;5061973;28;20439;-66
2022/01/09 03:15:09;;;;;;;0.60;0.30;;;5.00;21.00;;;;;;5059902;28;20102;-66
2022/01/09 03:17:38;;;;;;;1.25;0.35;;;5.00;21.00;;;;;;5062981;28;20407;-66
2022/01/09 03:20:09;;;;;;;0.30;0.20;;;5.00;21.80;;;;;;5062221;28;20044;-67
2022/01/09 03:22:36;;;;;;;0.10;0.10;;;5.00;22.20;;;;;;5061217;28;20135;-66
2022/01/09 03:25:06;;;;;;;2.38;0.40;;;5.00;21.90;;;;;;5043736;28;20423;-66
2022/01/09 03:27:36;;;;;;;0.10;0.10;;;5.00;22.40;;;;;;5060742;28;20059;-66
2022/01/09 03:30:07;;;;;;;0.20;0.15;;;5.00;23.10;;;;;;5061263;28;20147;-66
2022/01/09 03:32:36;;;;;;;0.82;0.20;;;4.90;24.30;;;;;;5062607;28;20048;-66
2022/01/09 03:35:04;;;;;;;0.20;0.20;;;4.90;24.90;;;;;;5062100;28;20044;-66
2022/01/09 03:37:32;;;;;;;0.30;0.10;;;4.90;25.30;;;;;;5064490;28;20575;-66
2022/01/09 03:40:00;;;;;;;0.40;0.20;;;4.90;25.70;;;;;;5061543;28;20385;-66
2022/01/09 03:42:28;;;;;;;0.30;0.20;;;4.90;25.40;;;;;;5060376;28;20143;-66
2022/01/09 03:44:59;;;;;;;0.82;0.20;;;4.90;26.00;;;;;;5058876;28;20044;-67
2022/01/09 03:47:27;;;;;;;0.68;0.30;;;5.00;25.80;;;;;;5063254;28;20466;-66
2022/01/09 03:49:55;;;;;;;0.75;0.20;;;5.00;26.40;;;;;;5059575;28;20051;-66
2022/01/09 03:52:27;;;;;;;0.50;0.10;;;5.00;26.40;;;;;;5063433;28;20143;-66
2022/01/09 03:54:56;;;;;;;2.05;0.40;;;5.00;27.00;;;;;;5060015;28;20139;-65
2022/01/09 03:57:24;;;;;;;0.10;0.10;;;5.00;28.00;;;;;;5062846;28;20071;-67
2022/01/09 03:59:52;;;;;;;0.10;0.10;;;5.00;28.80;;;;;;5060661;28;20055;-67
2022/01/09 04:02:22;;;;;;;1.02;0.25;;;4.90;29.70;;;;;;5059659;28;20045;-65
2022/01/09 04:04:50;;;;;;;0.47;0.30;;;4.90;30.00;;;;;;5060776;28;20052;-65
2022/01/09 04:07:19;;;;;;;0.43;0.20;;;4.90;30.10;;;;;;5058890;28;20393;-65
2022/01/09 04:09:49;;;;;;;0.20;0.20;;;4.90;30.70;;;;;;5061228;28;20052;-65
2022/01/09 04:12:19;;;;;;;0.32;0.30;;;4.90;31.50;;;;;;5063713;28;20050;-65
2022/01/09 04:14:48;;;;;;;0.35;0.20;;;4.90;31.20;;;;;;5062219;28;20064;-65
2022/01/09 04:17:25;;;;;;;0.63;0.22;;;4.90;31.10;;;;;;5064359;28;20057;-65
2022/01/09 04:19:54;;;;;;;0.50;0.30;;;4.90;30.60;;;;;;5060941;28;20045;-65
2022/01/09 04:22:22;;;;;;;1.85;0.20;;;4.90;30.70;;;;;;5061647;28;20176;-65
2022/01/09 04:24:50;;;;;;;0.32;0.20;;;4.90;30.60;;;;;;5061624;28;20051;-65
2022/01/09 04:27:18;;;;;;;0.40;0.17;;;4.90;31.10;;;;;;5064125;28;20128;-65
2022/01/09 04:29:46;;;;;;;0.35;0.20;;;4.80;32.40;;;;;;5059338;28;20055;-66
2022/01/09 04:32:15;;;;;;;0.68;0.25;;;4.80;32.30;;;;;;5062036;28;20501;-65
2022/01/09 04:34:43;;;;;;;1.95;0.40;;;4.80;33.10;;;;;;5062426;28;20047;-65
2022/01/09 04:37:13;;;;;;;0.22;0.20;;;4.80;32.50;;;;;;5062732;28;20503;-65
2022/01/09 04:39:42;;;;;;;0.80;0.20;;;4.80;35.70;;;;;;5047051;28;20056;-65
2022/01/09 04:42:10;;;;;;;0.38;0.10;;;4.70;35.90;;;;;;5064826;28;20040;-66
2022/01/09 04:44:38;;;;;;;0.35;0.20;;;4.70;36.90;;;;;;5060938;28;20139;-66
2022/01/09 04:47:12;;;;;;;0.65;0.43;;;4.60;37.10;;;;;;5063926;28;20048;-66
2022/01/09 04:49:43;;;;;;;0.90;0.20;;;4.60;37.10;;;;;;5061911;28;20044;-66
2022/01/09 04:52:16;;;;;;;1.17;0.20;;;4.60;37.80;;;;;;5063161;28;20131;-66
2022/01/09 04:54:44;;;;;;;0.28;0.10;;;4.50;37.20;;;;;;5063413;28;20098;-65
2022/01/09 04:57:13;;;;;;;2.65;0.32;;;4.50;36.40;;;;;;5057497;28;20448;-65
2022/01/09 04:59:41;;;;;;;0.60;0.20;;;4.40;36.70;;;;;;5045596;28;20049;-65
2022/01/09 05:02:09;;;;;;;0.52;0.10;;;4.40;33.30;;;;;;5048781;28;20083;-63
2022/01/09 05:04:37;;;;;;;0.30;0.30;;;4.40;35.50;;;;;;5045591;28;20045;-63
2022/01/09 05:07:05;;;;;;;0.88;0.15;;;4.40;34.80;;;;;;5047614;28;20053;-63
2022/01/09 05:09:35;;;;;;;2.38;0.10;;;4.30;34.60;;;;;;5047441;28;20065;-64
2022/01/09 05:12:03;;;;;;;0.10;0.10;;;4.30;34.60;;;;;;5051637;28;20061;-65
2022/01/09 05:14:31;;;;;;;0.65;0.20;;;4.30;34.10;;;;;;5046831;28;20044;-64
2022/01/09 05:17:01;;;;;;;0.20;0.10;;;4.20;34.50;;;;;;5047757;28;20041;-64
2022/01/09 05:19:31;;;;;;;0.68;0.10;;;4.20;35.00;;;;;;5045934;28;20546;-64
2022/01/09 05:22:00;;;;;;;0.20;0.10;;;4.10;35.00;;;;;;5046391;28;20047;-64
2022/01/09 05:24:28;;;;;;;0.10;0.10;;;4.00;33.00;;;;;;5060223;28;20040;-64
2022/01/09 05:26:57;;;;;;;0.10;0.00;;;4.00;30.90;;;;;;5065561;28;20174;-64
2022/01/09 05:29:25;;;;;;;0.10;0.10;;;3.90;31.40;;;;;;5065976;28;20499;-65
2022/01/09 05:31:53;;;;;;;0.35;0.10;;;3.80;32.60;;;;;;5067269;28;20165;-64
2022/01/09 05:34:22;;;;;;;0.10;0.10;;;3.70;32.80;;;;;;5064706;28;20045;-64
2022/01/09 05:36:50;;;;;;;0.22;0.13;;;3.60;33.60;;;;;;5065974;28;20048;-63
2022/01/09 05:39:19;;;;;;;0.10;0.10;;;3.60;33.40;;;;;;5066679;28;20128;-63
2022/01/09 05:41:47;;;;;;;0.43;0.00;;;3.50;34.40;;;;;;5065362;28;20476;-64
2022/01/09 05:44:19;;;;;;;0.82;0.50;;;3.50;34.00;;;;;;5064289;28;20079;-64
2022/01/09 05:46:47;;;;;;;0.82;0.10;;;3.60;33.90;;;;;;5068147;28;20048;-64
2022/01/09 05:49:15;;;;;;;0.45;0.40;;;3.50;32.80;;;;;;5066977;28;20036;-64
2022/01/09 05:51:43;;;;;;;0.45;0.22;;;3.60;32.70;;;;;;5066130;28;20052;-64
2022/01/09 05:54:11;;;;;;;0.60;0.22;;;3.60;32.60;;;;;;5064430;28;20094;-64
2022/01/09 05:56:39;;;;;;;0.70;0.20;;;3.60;33.00;;;;;;5065764;28;20152;-63
2022/01/09 05:59:07;;;;;;;3.38;0.30;;;3.60;33.50;;;;;;5064485;28;20052;-64
2022/01/09 06:01:37;;;;;;;4.32;0.40;;;3.70;32.80;;;;;;5064778;28;20181;-64
2022/01/09 06:04:06;;;;;;;2.70;0.45;;;3.70;33.20;;;;;;5064015;28;20056;-63
2022/01/09 06:06:34;;;;;;;0.60;0.40;;;3.70;32.80;;;;;;5065187;28;20043;-63
2022/01/09 06:09:02;;;;;;;2.45;0.77;;;3.70;32.80;;;;;;5066506;28;20366;-63
2022/01/09 06:11:30;;;;;;;1.95;0.70;;;3.70;33.20;;;;;;5063384;28;20052;-64
2022/01/09 06:13:58;;;;;;;1.17;0.75;;;3.70;33.80;;;;;;5067632;28;20048;-64
2022/01/09 06:16:26;;;;;;;4.32;1.00;;;3.80;32.40;;;;;;5064967;28;20071;-64
2022/01/09 06:18:56;;;;;;;2.53;0.88;;;3.80;31.00;;;;;;5066291;28;20052;-64
2022/01/09 06:21:26;;;;;;;3.20;0.80;;;3.90;29.90;;;;;;5063658;28;20529;-63
2022/01/09 06:23:54;;;;;;;3.38;0.60;;;4.00;29.20;;;;;;5066134;28;20044;-64
2022/01/09 06:26:23;;;;;;;3.05;0.70;;;3.90;29.40;;;;;;5064955;28;20071;-64
2022/01/09 06:28:51;;;;;;;1.85;0.77;;;3.90;30.90;;;;;;5049756;28;20045;-64
2022/01/09 06:31:19;;;;;;;3.25;1.27;;;4.00;28.20;;;;;;5062809;28;20048;-64
2022/01/09 06:33:46;;;;;;;2.22;0.80;;;4.00;29.40;;;;;;5065450;28;20049;-65
2022/01/09 06:36:17;;;;;;;1.38;0.90;;;4.00;29.10;;;;;;5063012;28;20041;-64
2022/01/09 06:38:45;;;;;;;1.60;0.52;;;4.00;29.00;;;;;;5065971;28;20044;-65
2022/01/09 06:41:13;;;;;;;4.88;0.95;;;4.10;28.20;;;;;;5063529;28;20037;-64
2022/01/09 06:43:41;;;;;;;2.40;0.82;;;4.00;28.50;;;;;;5063425;28;20051;-64
2022/01/09 06:46:09;;;;;;;4.00;0.98;;;4.10;28.10;;;;;;5065876;28;20072;-65
2022/01/09 06:48:37;;;;;;;3.80;1.25;;;4.10;25.80;;;;;;5051966;28;20045;-65
2022/01/09 06:51:06;;;;;;;2.03;0.60;;;4.10;25.80;;;;;;5048466;28;20053;-65
2022/01/09 06:53:36;;;;;;;1.33;0.60;;;4.10;25.80;;;;;;5051203;28;20531;-64
2022/01/09 06:56:04;;;;;;;1.00;0.60;;;4.10;25.90;;;;;;5054876;28;20131;-65
2022/01/09 06:58:33;;;;;;;2.05;0.73;;;4.10;26.90;;;;;;5053332;28;20044;-64
2022/01/09 07:01:03;;;;;;;2.33;0.90;;;4.10;27.70;;;;;;5056474;28;20045;-64
2022/01/09 07:03:31;;;;;;;2.35;0.80;;;4.10;27.10;;;;;;5067149;28;20503;-64
2022/01/09 07:06:00;;;;;;;4.45;1.65;;;4.10;26.60;;;;;;5056446;28;20048;-64
2022/01/09 07:08:29;;;;;;;3.70;1.48;;;4.10;27.50;;;;;;5054532;28;20052;-65
2022/01/09 07:10:58;;;;;;;3.58;1.40;;;4.10;27.80;;;;;;5056123;28;20040;-64
2022/01/09 07:13:26;;;;;;;3.60;1.10;;;4.10;26.30;;;;;;5066424;28;20117;-64
2022/01/09 07:15:54;;;;;;;6.25;1.38;;;4.10;27.10;;;;;;5048306;28;20055;-65
2022/01/09 07:18:23;;;;;;;6.88;2.08;;;4.00;27.40;;;;;;5052230;28;20155;-65
2022/01/09 07:20:52;;;;;;;7.22;1.88;;;4.00;26.40;;;;;;5061699;28;20055;-65
2022/01/09 07:23:20;;;;;;;4.82;1.80;;;4.00;27.00;;;;;;5064456;28;20048;-65
2022/01/09 07:25:48;;;;;;;5.60;2.25;;;4.00;26.20;;;;;;5062706;28;20094;-65
2022/01/09 07:28:17;;;;;;;5.68;1.50;;;4.00;25.80;;;;;;5065415;28;20063;-65
2022/01/09 07:30:45;;;;;;;7.95;1.90;;;4.00;25.30;;;;;;5062076;28;20032;-63
2022/01/09 07:33:13;;;;;;;2.92;1.40;;;4.00;24.60;;;;;;5063956;28;20092;-65
2022/01/09 07:35:42;;;;;;;6.57;1.90;;;4.00;24.40;;;;;;5064769;28;20035;-65
2022/01/09 07:38:11;;;;;;;5.72;1.50;;;4.00;24.10;;;;;;5065376;28;20044;-65
2022/01/09 07:40:47;;;;;;;4.50;1.67;;;4.10;22.00;;;;;;5061572;28;20040;-65
2022/01/09 07:43:17;;;;;;;5.55;1.30;;;4.10;22.10;;;;;;5064478;28;20041;-64
2022/01/09 07:45:48;;;;;;;6.13;1.10;;;4.10;21.30;;;;;;5062113;28;20059;-65
2022/01/09 07:48:16;;;;;;;4.85;1.13;;;4.00;20.00;;;;;;5065673;28;20714;-65
2022/01/09 07:50:45;;;;;;;4.00;1.15;;;4.00;20.40;;;;;;5063128;28;20089;-65
2022/01/09 07:53:15;;;;;;;4.22;1.25;;;4.00;20.40;;;;;;5062985;28;20047;-66
2022/01/09 07:55:46;;;;;;;2.57;1.00;;;3.90;20.90;;;;;;5062885;28;20098;-64
2022/01/09 07:58:14;;;;;;;2.88;1.52;;;4.00;19.60;;;;;;5066505;28;20070;-64
2022/01/09 08:00:44;;;;;;;3.28;1.17;;;3.90;20.60;;;;;;5061237;28;20041;-65
2022/01/09 08:03:13;;;;;;;2.97;1.15;;;3.80;20.90;;;;;;5062454;28;20119;-64
2022/01/09 08:05:42;;;;;;;3.70;1.30;;;3.80;20.00;;;;;;5062970;28;20041;-66
2022/01/09 08:08:10;;;;;;;6.30;1.25;;;3.80;20.70;;;;;;5065001;28;20400;-66
2022/01/09 08:10:38;;;;;;;5.43;1.15;;;3.80;20.90;;;;;;5062555;28;20113;-65
2022/01/09 08:13:06;;;;;;;6.07;1.30;;;3.80;20.40;;;;;;5062628;28;20522;-65
2022/01/09 08:15:35;;;;;;;5.50;1.63;;;3.80;19.90;;;;;;5062575;28;20119;-65
2022/01/09 08:18:05;;;;;;;3.95;1.20;;;3.80;19.00;;;;;;5064717;28;20080;-65
2022/01/09 08:20:33;;;;;;;3.28;1.10;;;3.80;18.90;;;;;;5063586;28;20620;-65
2022/01/09 08:23:01;;;;;;;2.95;1.10;;;3.80;17.00;;;;;;5062388;28;20122;-66
2022/01/09 08:25:32;;;;;;;7.05;1.52;;;3.90;16.30;;;;;;5062207;28;20506;-63
2022/01/09 08:28:00;;;;;;;5.55;1.75;;;3.90;15.40;;;;;;5067494;28;20138;-65
2022/01/09 08:30:28;;;;;;;7.60;1.30;;;3.90;14.60;;;;;;5066655;28;20127;-66
2022/01/09 08:32:57;;;;;;;5.75;1.40;;;3.90;14.00;;;;;;5068201;28;20048;-65
2022/01/09 08:35:26;;;;;;;7.00;1.67;;;3.90;15.00;;;;;;5065695;28;20176;-65
2022/01/09 08:37:54;;;;;;;7.13;1.63;;;4.00;14.20;;;;;;5071354;28;20044;-64
2022/01/09 08:40:23;;;;;;;4.28;1.05;;;4.00;14.40;;;;;;5067356;28;20457;-65
2022/01/09 08:42:53;;;;;;;2.72;1.10;;;4.00;13.60;;;;;;5067920;28;20128;-65
2022/01/09 08:45:23;;;;;;;5.07;1.30;;;4.10;12.70;;;;;;5062634;28;20063;-65
2022/01/09 08:47:51;;;;;;;5.35;1.92;;;4.10;12.60;;;;;;5058182;28;20041;-65
2022/01/09 08:50:20;;;;;;;7.70;1.70;;;4.10;12.00;;;;;;5063597;28;20054;-65
2022/01/09 08:52:50;;;;;;;5.25;1.40;;;4.10;12.90;;;;;;5067722;28;20131;-66
2022/01/09 08:55:18;;;;;;;4.95;1.80;;;4.20;11.90;;;;;;5063293;28;20139;-65
2022/01/09 08:57:46;;;;;;;6.15;1.33;;;4.20;11.40;;;;;;5068445;28;20040;-65
2022/01/09 09:00:16;;;;;;;6.50;1.90;;;4.20;10.70;;;;;;5065793;28;20044;-65
2022/01/09 09:02:45;;;;;;;7.13;1.73;;;4.30;10.40;;;;;;5065823;28;20098;-65
2022/01/09 09:05:13;;;;;;;7.05;1.55;;;4.30;9.00;;;;;;5065126;28;20059;-66
2022/01/09 09:07:41;;;;;;;5.53;1.67;;;4.40;8.80;;;;;;5064848;28;20122;-66
2022/01/09 09:10:11;;;;;;;3.75;1.13;;;4.40;7.10;;;;;;5065039;28;20163;-65
2022/01/09 09:12:40;;;;;;;4.15;1.58;;;4.40;7.60;;;;;;5064508;28;20451;-66
2022/01/09 09:15:09;;;;;;;9.32;1.30;;;4.50;7.40;;;;;;5063896;28;20052;-66
2022/01/09 09:17:37;;;;;;;7.97;1.60;;;4.50;7.30;;;;;;5066013;28;20041;-65
2022/01/09 09:20:06;;;;;;;6.20;2.05;;;4.50;7.40;;;;;;5065817;28;20075;-65
2022/01/09 09:22:37;;;;;;;7.35;1.58;;;4.50;6.40;;;;;;5065806;28;20063;-67
2022/01/09 09:25:06;;;;;;;6.47;1.65;;;4.50;5.90;;;;;;5064045;28;20063;-67
2022/01/09 09:27:35;;;;;;;4.80;1.38;;;4.50;5.00;;;;;;5067283;28;20040;-64
2022/01/09 09:30:06;;;;;;;4.47;1.25;;;4.50;4.50;;;;;;5066074;28;20051;-64
2022/01/09 09:32:35;;;;;;;5.75;1.73;;;4.50;5.60;;;;;;5067091;28;20492;-66
2022/01/09 09:35:04;;;;;;;5.85;1.75;;;4.60;5.90;;;;;;5065868;28;20045;-65
2022/01/09 09:37:32;;;;;;;3.75;1.45;;;4.70;5.80;;;;;;5067608;28;20458;-66
2022/01/09 09:40:06;;;;;;;6.80;1.30;;;4.70;5.90;;;;;;5064391;28;20101;-67
2022/01/09 09:42:35;;;;;;;6.30;1.35;;;4.70;5.90;;;;;;5065990;28;20119;-66
2022/01/09 09:45:08;;;;;;;3.50;1.25;;;4.70;6.20;;;;;;5063044;28;20053;-66
2022/01/09 09:47:38;;;;;;;9.73;1.42;;;4.70;5.90;;;;;;5068193;28;20067;-66
2022/01/09 09:50:10;;;;;;;4.38;1.20;;;4.80;5.70;;;;;;5065294;28;20044;-66
2022/01/09 09:52:38;;;;;;;3.55;0.80;;;4.80;5.20;;;;;;5062646;28;20049;-66
2022/01/09 09:55:07;;;;;;;1.85;0.70;;;4.80;5.60;;;;;;5063510;28;20059;-66
2022/01/09 09:57:36;;;;;;;5.53;1.05;;;4.80;6.50;;;;;;5066558;28;20643;-66
2022/01/09 10:00:08;;;;;;;6.43;1.27;;;4.90;7.00;;;;;;5064389;28;20067;-66
2022/01/09 10:02:44;;;;;;;3.78;0.80;;;4.80;6.50;;;;;;5064056;28;20036;-66
2022/01/09 10:05:14;;;;;;;4.90;1.25;;;4.80;7.60;;;;;;5063588;28;20071;-65
2022/01/09 10:07:43;;;;;;;9.55;1.65;;;4.90;7.90;;;;;;5066585;28;20196;-66
2022/01/09 10:10:14;;;;;;;5.25;1.10;;;4.80;7.60;;;;;;5064047;28;20059;-66
2022/01/09 10:12:46;;;;;;;2.92;1.38;;;4.80;7.20;;;;;;5061688;28;20515;-66
2022/01/09 10:15:17;;;;;;;3.05;1.20;;;4.90;7.60;;;;;;5063289;28;20502;-66
2022/01/09 10:17:47;;;;;;;3.90;1.63;;;5.00;7.00;;;;;;5066675;28;20142;-66
2022/01/09 10:20:21;;;;;;;4.10;1.48;;;5.00;7.00;;;;;;5065281;28;20083;-66
2022/01/09 10:22:51;;;;;;;10.80;1.98;;;5.10;6.20;;;;;;5065091;28;20036;-66
2022/01/09 10:25:22;;;;;;;3.10;0.95;;;4.90;6.30;;;;;;5062262;28;20044;-67
2022/01/09 10:27:58;;;;;;;5.72;1.38;;;5.10;6.60;;;;;;5067616;28;20067;-66
2022/01/09 10:30:28;;;;;;;5.93;1.30;;;5.20;6.60;;;;;;5055784;28;20037;-65
2022/01/09 10:33:00;;;;;;;4.28;1.52;;;5.10;6.40;;;;;;5065512;28;20054;-66
2022/01/09 10:35:32;;;;;;;6.63;1.90;;;5.20;6.90;;;;;;5060589;28;20048;-65
2022/01/09 10:38:17;;;;;;;4.75;1.15;;;5.00;7.70;;;;;;5057598;28;20049;-67
2022/01/09 10:40:49;;;;;;;4.05;0.90;;;5.10;7.50;;;;;;5049978;28;20117;-65
2022/01/09 10:43:22;;;;;;;2.23;1.20;;;5.10;6.30;;;;;;5054246;28;20044;-66
2022/01/09 10:45:59;;;;;;;3.90;0.90;;;5.00;6.70;;;;;;5061071;28;20051;-66
2022/01/09 10:48:37;;;;;;;4.20;1.55;;;5.20;7.10;;;;;;5058965;28;20041;-66
2022/01/09 10:51:07;;;;;;;4.97;1.65;;;5.10;7.10;;;;;;5048725;28;20045;-66
2022/01/09 10:53:36;;;;;;;4.50;1.30;;;5.00;7.90;;;;;;5054362;28;20044;-65
2022/01/09 10:56:12;;;;;;;5.03;1.23;;;5.10;8.50;;;;;;5063168;28;20377;-67
2022/01/09 10:58:43;;;;;;;4.73;0.97;;;5.00;6.50;;;;;;5065845;28;20079;-67
2022/01/09 11:01:18;;;;;;;3.13;1.10;;;5.20;7.70;;;;;;5063979;28;20060;-66
2022/01/09 11:03:48;;;;;;;3.40;1.30;;;5.50;6.30;;;;;;5066535;28;20127;-66
2022/01/09 11:06:17;;;;;;;1.55;0.82;;;5.40;6.20;;;;;;5064492;28;20056;-67
2022/01/09 11:08:46;;;;;;;5.47;0.80;;;5.60;5.50;;;;;;5065992;28;20047;-66
2022/01/09 11:14:04;;;;;;;1.65;0.80;;;5.70;5.80;;;;;;5041100;28;20051;-65
2022/01/09 11:16:33;;;;;;;3.40;1.33;;;5.80;5.00;;;;;;5044636;28;20043;-67
2022/01/09 11:19:04;;;;;;;2.47;0.75;;;5.70;5.20;;;;;;5044906;28;20060;-66
2022/01/09 11:21:33;;;;;;;2.97;1.05;;;5.80;5.80;;;;;;5043647;28;20056;-65
2022/01/09 11:24:19;;;;;;;3.15;1.50;;;5.70;5.50;;;;;;5043662;28;20052;-66
2022/01/09 11:26:53;;;;;;;5.85;1.30;;;5.70;6.60;;;;;;5042379;28;20047;-67
2022/01/09 11:29:30;;;;;;;2.47;0.93;;;5.60;5.70;;;;;;5062202;28;20058;-66
2022/01/09 11:32:10;;;;;;;2.42;1.00;;;5.50;6.30;;;;;;5066251;28;20072;-67
2022/01/09 11:34:53;;;;;;;5.65;1.75;;;5.00;7.20;;;;;;5062277;28;20056;-66
2022/01/09 11:37:40;;;;;;;4.88;1.65;;;5.20;8.20;;;;;;5047412;28;20049;-66
2022/01/09 11:40:22;;;;;;;4.55;1.88;;;5.20;8.70;;;;;;5057363;28;20086;-67
2022/01/09 11:43:02;;;;;;;2.67;1.30;;;5.20;7.50;;;;;;5061853;28;20451;-67
2022/01/09 11:45:44;;;;;;;5.75;1.95;;;5.30;5.50;;;;;;5047348;28;20083;-67
2022/01/09 11:48:16;;;;;;;6.00;1.30;;;5.40;6.10;;;;;;5056396;28;20052;-66
2022/01/09 11:51:15;;;;;;;5.15;1.70;;;5.60;4.80;;;;;;5064167;28;20092;-67
2022/01/09 11:54:08;;;;;;;6.32;1.08;;;5.70;4.40;;;;;;5007586;28;20037;-67
2022/01/09 11:57:03;;;;;;;6.70;1.73;;;5.50;4.90;;;;;;5050367;28;20060;-67
2022/01/09 11:59:53;;;;;;;6.43;1.67;;;4.90;6.80;;;;;;5061711;28;20105;-65
2022/01/09 12:02:34;;;;;;;7.93;1.80;;;4.70;12.40;;;;;;5060779;28;20061;-65
2022/01/09 12:05:10;;;;;;;3.92;1.50;;;4.80;14.00;;;;;;5063747;28;20131;-68
2022/01/09 12:08:08;;;;;;;4.28;1.63;;;4.80;12.20;;;;;;5049221;28;20056;-67
2022/01/09 12:10:54;;;;;;;3.63;1.42;;;4.90;13.70;;;;;;5066922;28;20094;-67
2022/01/09 12:13:41;;;;;;;7.38;2.05;;;4.80;12.70;;;;;;5063140;28;20426;-67
2022/01/09 12:16:45;;;;;;;8.07;1.98;;;4.80;13.50;;;;;;5065400;28;20043;-66
2022/01/09 12:19:53;;;;;;;6.45;1.73;;;4.80;13.20;;;;;;5067083;28;20079;-66
2022/01/09 12:23:01;;;;;;;6.88;2.03;;;4.80;14.80;;;;;;5066068;28;20051;-66
2022/01/09 12:25:52;;;;;;;7.55;1.30;;;4.60;18.60;;;;;;5065537;28;20041;-65
2022/01/09 12:28:46;;;;;;;10.93;2.28;;;4.20;21.10;;;;;;5066020;28;20040;-66
2022/01/09 12:31:25;;;;;;;5.20;1.75;;;3.80;25.10;;;;;;5064695;28;20518;-64
2022/01/09 12:33:54;;;;;;;3.30;1.38;;;3.80;26.30;;;;;;5053571;28;20131;-65
2022/01/09 12:36:27;;;;;;;6.85;1.95;;;4.00;27.00;;;;;;5045049;28;20126;-64
2022/01/09 12:38:57;;;;;;;7.22;1.80;;;4.10;26.40;;;;;;5045929;28;20053;-65
2022/01/09 12:41:28;;;;;;;8.27;2.00;;;4.30;26.20;;;;;;5044126;28;20064;-66
2022/01/09 12:44:04;;;;;;;5.22;2.65;;;4.10;24.80;;;;;;5051027;28;20484;-66
2022/01/09 12:46:34;;;;;;;8.18;2.97;;;4.10;26.70;;;;;;5067310;28;20131;-65
2022/01/09 12:49:05;;;;;;;6.55;2.10;;;4.20;27.90;;;;;;5066794;28;20049;-63
2022/01/09 12:51:36;;;;;;;5.47;2.05;;;4.10;27.70;;;;;;5062339;28;20061;-65
2022/01/09 12:54:06;;;;;;;9.63;2.55;;;4.20;28.30;;;;;;5067440;28;20254;-65
2022/01/09 12:56:36;;;;;;;5.97;2.75;;;4.30;27.90;;;;;;5066097;28;20606;-65
2022/01/09 12:59:07;;;;;;;5.60;2.13;;;4.40;28.50;;;;;;5067025;28;20048;-66
2022/01/09 13:01:39;;;;;;;11.88;3.03;;;4.30;26.70;;;;;;5061803;28;20871;-65
2022/01/09 13:04:14;;;;;;;7.30;2.30;;;4.30;27.50;;;;;;5062267;28;20037;-64
2022/01/09 13:06:47;;;;;;;4.93;1.95;;;4.20;29.90;;;;;;5064290;28;20048;-64
2022/01/09 13:09:17;;;;;;;4.40;1.55;;;4.00;26.70;;;;;;5064995;28;20110;-66
2022/01/09 13:11:58;;;;;;;7.75;1.95;;;3.90;27.00;;;;;;5063755;28;20044;-64
2022/01/09 13:14:37;;;;;;;2.58;1.00;;;3.70;28.50;;;;;;5062483;28;20048;-65
2022/01/09 13:17:07;;;;;;;7.20;1.67;;;3.40;29.70;;;;;;5065588;28;20071;-65
2022/01/09 13:19:55;;;;;;;6.50;2.75;;;3.60;32.70;;;;;;5061439;28;20052;-66
2022/01/09 13:22:25;;;;;;;11.05;4.65;;;3.90;33.20;;;;;;5065695;28;20044;-65